createdAt,value
2018-02-21T00:02:05.980Z,71.60
2018-02-21T00:04:33.600Z,71.60
2018-02-21T00:07:01.240Z,71.40
2018-02-21T00:09:28.874Z,72.00
2018-02-21T00:11:56.517Z,70.90
2018-02-21T00:14:24.141Z,71.80
2018-02-21T00:16:51.780Z,71.50
2018-02-21T00:19:20.169Z,71.60
2018-02-21T00:21:48.560Z,71.40
2018-02-21T00:24:16.961Z,70.60
2018-02-21T00:26:44.602Z,70.60
2018-02-21T00:29:13.005Z,70.70
2018-02-21T00:31:40.673Z,70.70
2018-02-21T00:34:08.649Z,70.80
2018-02-21T00:36:36.277Z,70.40
2018-02-21T00:39:03.925Z,71.70
2018-02-21T00:41:31.566Z,71.10
2018-02-21T00:43:59.209Z,70.70
2018-02-21T00:46:26.833Z,70.90
2018-02-21T00:48:54.473Z,71.60
2018-02-21T00:51:22.105Z,70.00
2018-02-21T00:53:49.732Z,70.50
2018-02-21T00:56:17.378Z,71.40
2018-02-21T00:58:45.017Z,71.00
2018-02-21T01:01:12.645Z,70.60
2018-02-21T01:03:40.292Z,70.90
2018-02-21T01:06:07.940Z,70.70
2018-02-21T01:08:35.559Z,69.70
2018-02-21T01:11:04.937Z,70.30
2018-02-21T01:13:32.611Z,70.20
2018-02-21T01:16:00.247Z,70.70
2018-02-21T01:18:27.885Z,71.10
2018-02-21T01:20:55.519Z,72.00
2018-02-21T01:23:23.929Z,71.90
2018-02-21T01:25:51.567Z,71.90
2018-02-21T01:28:19.961Z,70.30
2018-02-21T01:30:48.364Z,70.30
2018-02-21T01:33:15.986Z,70.20
2018-02-21T01:35:43.612Z,71.50
2018-02-21T01:38:12.012Z,71.80
2018-02-21T01:40:39.649Z,70.80
2018-02-21T01:43:07.276Z,71.20
2018-02-21T01:45:34.920Z,71.30
2018-02-21T01:48:02.544Z,69.20
2018-02-21T01:53:30.073Z,71.50
2018-02-21T01:55:57.725Z,71.70
2018-02-21T01:58:25.349Z,70.90
2018-02-21T02:00:52.980Z,71.30
2018-02-21T02:03:21.389Z,72.80
2018-02-21T02:05:49.024Z,72.00
2018-02-21T02:08:16.701Z,72.10
2018-02-21T02:10:45.113Z,72.20
2018-02-21T02:13:12.759Z,72.20
2018-02-21T02:15:41.154Z,72.60
2018-02-21T02:18:08.807Z,72.60
2018-02-21T02:20:37.200Z,71.40
2018-02-21T02:23:04.837Z,71.40
2018-02-21T02:25:32.480Z,72.20
2018-02-21T02:28:00.121Z,72.50
2018-02-21T02:30:27.809Z,72.50
2018-02-21T02:32:55.450Z,72.10
2018-02-21T02:35:23.081Z,73.10
2018-02-21T02:37:51.500Z,73.50
2018-02-21T02:40:19.122Z,73.50
2018-02-21T02:42:46.762Z,73.70
2018-02-21T02:45:15.161Z,74.30
2018-02-21T02:47:42.803Z,74.30
2018-02-21T02:50:10.452Z,74.50
2018-02-21T02:52:38.080Z,73.00
2018-02-21T02:55:06.502Z,73.40
2018-02-21T02:57:34.114Z,73.30
2018-02-21T03:00:01.773Z,72.80
2018-02-21T03:02:29.401Z,73.10
2018-02-21T03:04:57.044Z,73.70
2018-02-21T03:07:24.681Z,73.90
2018-02-21T03:09:52.329Z,73.40
2018-02-21T03:12:20.720Z,73.50
2018-02-21T03:14:48.355Z,73.50
2018-02-21T03:17:15.993Z,74.20
2018-02-21T03:19:43.650Z,74.00
2018-02-21T03:22:12.042Z,73.20
2018-02-21T03:24:39.681Z,73.20
2018-02-21T03:27:07.327Z,73.50
2018-02-21T03:29:34.972Z,74.00
2018-02-21T03:32:03.444Z,73.70
2018-02-21T03:34:31.817Z,74.00
2018-02-21T03:36:59.465Z,73.90
2018-02-21T03:39:27.116Z,74.20
2018-02-21T03:41:55.543Z,74.40
2018-02-21T03:44:23.207Z,74.40
2018-02-21T03:46:50.850Z,75.00
2018-02-21T03:49:19.429Z,74.50
2018-02-21T03:51:47.841Z,74.70
2018-02-21T03:54:15.480Z,74.60
2018-02-21T03:56:43.881Z,74.30
2018-02-21T03:59:11.525Z,74.10
2018-02-21T04:01:39.936Z,74.70
2018-02-21T04:04:07.594Z,74.70
2018-02-21T04:06:35.249Z,74.50
2018-02-21T04:09:03.648Z,74.40
2018-02-21T04:11:31.293Z,74.40
2018-02-21T04:13:58.949Z,76.00
2018-02-21T04:16:26.600Z,74.70
2018-02-21T04:18:54.264Z,74.60
2018-02-21T04:21:21.919Z,75.10
2018-02-21T04:23:49.548Z,75.10
2018-02-21T04:26:17.202Z,75.30
2018-02-21T04:28:45.589Z,75.00
2018-02-21T04:31:13.228Z,74.90
2018-02-21T04:33:40.871Z,75.70
2018-02-21T04:36:08.508Z,75.00
2018-02-21T04:38:36.161Z,75.00
2018-02-21T04:41:04.549Z,75.30
2018-02-21T04:43:32.188Z,75.30
2018-02-21T04:46:00.600Z,75.40
2018-02-21T04:48:28.236Z,75.40
2018-02-21T04:50:56.645Z,75.00
2018-02-21T04:53:24.286Z,75.00
2018-02-21T04:55:51.929Z,75.00
2018-02-21T04:58:19.560Z,75.00
2018-02-21T05:00:47.208Z,75.10
2018-02-21T05:03:15.608Z,75.60
2018-02-21T05:05:43.248Z,75.60
2018-02-21T05:08:10.888Z,75.30
2018-02-21T05:10:38.548Z,75.80
2018-02-21T05:13:06.202Z,75.90
2018-02-21T05:15:33.864Z,76.20
2018-02-21T05:18:01.504Z,76.00
2018-02-21T05:20:29.159Z,77.30
2018-02-21T05:22:56.822Z,76.90
2018-02-21T05:25:25.220Z,76.40
2018-02-21T05:27:52.893Z,76.40
2018-02-21T05:30:20.545Z,76.70
2018-02-21T05:32:48.184Z,76.90
2018-02-21T05:35:16.618Z,77.10
2018-02-21T05:37:44.296Z,77.00
2018-02-21T05:40:11.936Z,76.50
2018-02-21T05:42:39.592Z,76.20
2018-02-21T05:45:07.245Z,76.60
2018-02-21T05:47:35.640Z,76.90
2018-02-21T05:50:03.326Z,76.80
2018-02-21T05:52:30.932Z,76.90
2018-02-21T05:54:58.568Z,77.60
2018-02-21T05:57:26.209Z,78.70
2018-02-21T05:59:53.848Z,78.20
2018-02-21T06:02:22.257Z,77.40
2018-02-21T06:04:49.905Z,77.40
2018-02-21T06:07:18.327Z,78.00
2018-02-21T06:09:45.972Z,78.10
2018-02-21T06:12:13.609Z,77.30
2018-02-21T06:14:41.253Z,77.00
2018-02-21T06:17:08.896Z,77.90
2018-02-21T06:19:36.537Z,77.80
2018-02-21T06:22:04.176Z,77.70
2018-02-21T06:24:32.601Z,77.30
2018-02-21T06:27:00.236Z,77.30
2018-02-21T06:29:28.640Z,77.50
2018-02-21T06:31:56.274Z,77.50
2018-02-21T06:34:23.952Z,77.20
2018-02-21T06:36:52.375Z,77.60
2018-02-21T06:39:20.078Z,77.60
2018-02-21T06:41:47.743Z,77.90
2018-02-21T06:44:15.385Z,77.80
2018-02-21T06:46:43.024Z,77.70
2018-02-21T06:49:10.681Z,77.70
2018-02-21T06:51:39.097Z,78.50
2018-02-21T06:54:06.732Z,78.50
2018-02-21T06:56:35.136Z,78.60
2018-02-21T06:59:02.769Z,78.60
2018-02-21T07:01:36.769Z,79.30
2018-02-21T07:04:04.418Z,79.30
2018-02-21T07:06:32.057Z,79.80
2018-02-21T07:08:59.692Z,80.00
2018-02-21T07:11:28.132Z,79.70
2018-02-21T07:13:55.788Z,79.70
2018-02-21T07:16:23.425Z,79.80
2018-02-21T07:18:51.065Z,80.10
2018-02-21T07:21:19.469Z,79.80
2018-02-21T07:23:47.105Z,79.80
2018-02-21T07:26:14.745Z,78.90
2018-02-21T07:28:42.364Z,79.10
2018-02-21T07:31:10.013Z,79.30
2018-02-21T07:33:38.413Z,79.80
2018-02-21T07:36:06.053Z,79.80
2018-02-21T07:38:33.708Z,79.60
2018-02-21T07:41:01.349Z,79.30
2018-02-21T07:43:34.472Z,79.70
2018-02-21T07:46:02.119Z,79.20
2018-02-21T07:48:29.762Z,79.20
2018-02-21T07:50:57.447Z,79.20
2018-02-21T07:53:25.236Z,79.20
2018-02-21T07:55:52.931Z,79.10
2018-02-21T07:58:21.388Z,78.30
2018-02-21T08:00:50.077Z,78.40
2018-02-21T08:03:17.712Z,79.10
2018-02-21T08:05:45.400Z,78.30
2018-02-21T08:08:13.106Z,78.80
2018-02-21T08:10:41.530Z,77.80
2018-02-21T08:13:10.009Z,77.80
2018-02-21T08:15:37.647Z,77.70
2018-02-21T08:18:05.322Z,77.80
2018-02-21T08:20:33.723Z,77.20
2018-02-21T08:23:01.377Z,77.20
2018-02-21T08:25:29.078Z,77.60
2018-02-21T08:27:56.741Z,77.50
2018-02-21T08:30:24.369Z,77.60
2018-02-21T08:32:52.018Z,77.20
2018-02-21T08:35:20.430Z,77.40
2018-02-21T08:37:48.169Z,77.40
2018-02-21T08:40:17.004Z,76.90
2018-02-21T08:42:44.644Z,76.90
2018-02-21T08:45:13.351Z,76.30
2018-02-21T08:47:41.033Z,77.10
2018-02-21T08:50:08.750Z,76.30
2018-02-21T08:52:38.226Z,75.40
2018-02-21T08:55:05.877Z,75.20
2018-02-21T08:57:33.520Z,74.60
2018-02-21T09:00:01.348Z,75.00
2018-02-21T09:02:30.869Z,75.40
2018-02-21T09:05:05.804Z,74.50
2018-02-21T09:07:34.212Z,73.50
2018-02-21T09:10:01.846Z,73.60
2018-02-21T09:12:30.250Z,72.50
2018-02-21T09:14:57.912Z,72.50
2018-02-21T09:17:26.302Z,71.70
2018-02-21T09:19:53.944Z,71.60
2018-02-21T09:22:22.341Z,71.20
2018-02-21T09:24:50.733Z,71.50
2018-02-21T09:27:18.365Z,71.50
2018-02-21T09:29:46.014Z,69.80
2018-02-21T09:32:13.647Z,69.30
2018-02-21T09:34:41.279Z,69.20
2018-02-21T09:37:09.672Z,67.70
2018-02-21T09:39:38.103Z,67.90
2018-02-21T09:42:05.773Z,67.20
2018-02-21T09:44:33.400Z,66.40
2018-02-21T09:47:01.028Z,66.00
2018-02-21T09:49:28.657Z,66.50
2018-02-21T09:51:56.297Z,66.50
2018-02-21T09:54:23.916Z,66.20
2018-02-21T09:56:51.540Z,63.70
2018-02-21T09:59:19.176Z,65.10
2018-02-21T10:01:46.804Z,64.30
2018-02-21T10:04:14.429Z,64.40
2018-02-21T10:06:42.056Z,64.30
2018-02-21T10:09:09.687Z,63.60
2018-02-21T10:11:37.312Z,62.20
2018-02-21T10:14:04.945Z,61.90
2018-02-21T10:16:32.612Z,61.10
2018-02-21T10:19:00.206Z,61.40
2018-02-21T10:21:28.629Z,60.80
2018-02-21T10:23:56.261Z,60.70
2018-02-21T10:26:24.644Z,57.90
2018-02-21T10:28:53.071Z,58.60
2018-02-21T10:31:20.698Z,58.60
2018-02-21T10:33:50.289Z,58.40
2018-02-21T10:36:24.260Z,58.50
2018-02-21T10:38:51.941Z,58.40
2018-02-21T10:41:30.749Z,56.60
2018-02-21T10:43:58.376Z,56.20
2018-02-21T10:46:25.996Z,57.70
2018-02-21T10:48:54.003Z,56.40
2018-02-21T10:51:22.417Z,52.90
2018-02-21T10:53:50.041Z,52.90
2018-02-21T10:56:17.935Z,54.70
2018-02-21T10:58:45.622Z,53.60
2018-02-21T11:01:13.266Z,53.20
2018-02-21T11:03:41.653Z,53.50
2018-02-21T11:06:16.104Z,53.60
2018-02-21T11:08:43.742Z,53.80
2018-02-21T11:11:11.377Z,52.90
2018-02-21T11:13:39.001Z,51.90
2018-02-21T11:16:06.629Z,52.50
2018-02-21T11:18:35.021Z,51.70
2018-02-21T11:21:02.656Z,51.60
2018-02-21T11:23:30.347Z,50.90
2018-02-21T11:25:57.932Z,50.40
2018-02-21T11:28:25.553Z,51.70
2018-02-21T11:30:53.209Z,50.80
2018-02-21T11:33:20.828Z,47.60
2018-02-21T11:35:48.477Z,47.00
2018-02-21T11:38:16.876Z,47.80
2018-02-21T11:40:44.501Z,47.70
2018-02-21T11:43:12.143Z,47.20
2018-02-21T11:48:19.208Z,47.20
2018-02-21T11:50:46.830Z,47.10
2018-02-21T11:53:14.842Z,46.80
2018-02-21T11:55:42.465Z,45.30
2018-02-21T11:58:10.097Z,47.10
2018-02-21T12:00:37.721Z,45.60
2018-02-21T12:03:06.125Z,45.00
2018-02-21T12:05:33.753Z,45.00
2018-02-21T12:08:01.378Z,44.80
2018-02-21T12:10:29.004Z,46.00
2018-02-21T12:12:57.389Z,45.00
2018-02-21T12:15:25.780Z,45.70
2018-02-21T12:17:54.168Z,43.80
2018-02-21T12:20:21.800Z,43.90
2018-02-21T12:22:49.649Z,43.80
2018-02-21T12:25:17.277Z,44.10
2018-02-21T12:27:44.896Z,43.70
2018-02-21T12:30:12.522Z,45.80
2018-02-21T12:32:40.149Z,43.40
2018-02-21T12:35:07.778Z,41.20
2018-02-21T12:37:35.405Z,41.90
2018-02-21T12:40:03.030Z,40.60
2018-02-21T12:42:30.669Z,40.60
2018-02-21T12:44:58.284Z,39.40
2018-02-21T12:47:26.684Z,40.30
2018-02-21T12:49:54.648Z,40.20
2018-02-21T12:52:23.041Z,38.90
2018-02-21T12:54:50.665Z,38.90
2018-02-21T12:57:18.297Z,37.20
2018-02-21T12:59:45.925Z,37.10
2018-02-21T13:02:13.560Z,37.90
2018-02-21T13:04:41.198Z,36.60
2018-02-21T13:07:20.147Z,38.00
2018-02-21T13:09:47.776Z,37.40
2018-02-21T13:12:15.418Z,36.10
2018-02-21T13:14:43.052Z,35.50
2018-02-21T13:17:10.685Z,37.10
2018-02-21T13:19:38.317Z,36.40
2018-02-21T13:22:06.708Z,35.30
2018-02-21T13:24:34.341Z,35.20
2018-02-21T13:27:02.005Z,38.00
2018-02-21T13:29:29.818Z,37.20
2018-02-21T13:31:57.449Z,37.70
2018-02-21T13:34:25.077Z,38.10
2018-02-21T13:36:52.705Z,37.90
2018-02-21T13:39:21.093Z,41.00
2018-02-21T13:41:48.720Z,40.90
2018-02-21T13:44:16.344Z,40.00
2018-02-21T13:46:44.061Z,39.60
2018-02-21T13:49:11.705Z,38.80
2018-02-21T13:51:39.343Z,37.60
2018-02-21T13:54:06.969Z,37.60
2018-02-21T13:56:35.368Z,34.90
2018-02-21T13:59:03.012Z,34.80
2018-02-21T14:01:30.664Z,35.40
2018-02-21T14:03:58.289Z,35.00
2018-02-21T14:06:25.928Z,35.50
2018-02-21T14:08:54.320Z,36.60
2018-02-21T14:11:21.937Z,36.60
2018-02-21T14:13:49.570Z,37.40
2018-02-21T14:16:17.196Z,39.10
2018-02-21T14:18:45.129Z,40.40
2018-02-21T14:21:12.770Z,40.60
2018-02-21T14:23:40.441Z,39.10
2018-02-21T14:26:08.073Z,38.80
2018-02-21T14:28:36.808Z,38.00
2018-02-21T14:31:04.428Z,38.00
2018-02-21T14:33:32.832Z,39.70
2018-02-21T14:36:00.468Z,39.70
2018-02-21T14:38:28.099Z,39.00
2018-02-21T14:40:55.726Z,40.80
2018-02-21T14:43:23.349Z,41.90
2018-02-21T14:45:50.973Z,43.70
2018-02-21T14:48:18.601Z,42.10
2018-02-21T14:50:46.221Z,44.10
2018-02-21T14:53:13.880Z,46.40
2018-02-21T14:55:41.516Z,46.20
2018-02-21T14:58:09.903Z,46.80
2018-02-21T15:00:37.545Z,46.70
2018-02-21T15:03:05.169Z,47.00
2018-02-21T15:05:32.795Z,47.60
2018-02-21T15:08:01.189Z,48.20
2018-02-21T15:10:28.822Z,48.20
2018-02-21T15:12:56.448Z,48.30
2018-02-21T15:15:24.078Z,48.70
2018-02-21T15:17:51.725Z,50.20
2018-02-21T15:20:19.352Z,48.40
2018-02-21T15:22:46.969Z,48.90
2018-02-21T15:25:15.385Z,48.50
2018-02-21T15:27:43.031Z,48.50
2018-02-21T15:30:13.380Z,47.70
2018-02-21T15:32:40.956Z,47.70
2018-02-21T15:35:08.592Z,48.20
2018-02-21T15:37:36.976Z,49.20
2018-02-21T15:40:04.610Z,49.20
2018-02-21T15:42:32.233Z,49.80
2018-02-21T15:44:59.870Z,48.40
2018-02-21T15:47:28.645Z,48.50
2018-02-21T15:49:57.032Z,48.70
2018-02-21T15:52:25.449Z,47.80
2018-02-21T15:54:53.101Z,47.80
2018-02-21T15:57:20.741Z,47.30
2018-02-21T15:59:48.356Z,47.70
2018-02-21T16:02:15.994Z,47.50
2018-02-21T16:04:43.618Z,47.20
2018-02-21T16:07:11.248Z,47.50
2018-02-21T16:09:38.873Z,48.40
2018-02-21T16:12:07.265Z,48.20
2018-02-21T16:14:35.671Z,48.40
2018-02-21T16:17:03.304Z,48.40
2018-02-21T16:19:31.696Z,51.00
2018-02-21T16:22:00.098Z,52.00
2018-02-21T16:24:27.730Z,51.90
2018-02-21T16:26:55.392Z,52.40
2018-02-21T16:29:23.054Z,52.40
2018-02-21T16:31:50.692Z,53.00
2018-02-21T16:34:18.341Z,53.00
2018-02-21T16:36:45.982Z,53.90
2018-02-21T16:39:13.602Z,53.70
2018-02-21T16:41:41.249Z,54.20
2018-02-21T16:44:08.921Z,54.70
2018-02-21T16:46:37.263Z,55.20
2018-02-21T16:49:05.652Z,55.30
2018-02-21T16:51:33.281Z,55.20
2018-02-21T16:54:00.916Z,55.80
2018-02-21T16:56:28.841Z,55.90
2018-02-21T16:58:57.229Z,56.60
2018-02-21T17:01:28.679Z,56.20
2018-02-21T17:03:57.060Z,55.80
2018-02-21T17:06:24.696Z,56.30
2018-02-21T17:08:52.696Z,56.80
2018-02-21T17:11:20.325Z,57.80
2018-02-21T17:13:47.951Z,56.90
2018-02-21T17:16:15.581Z,57.50
2018-02-21T17:18:43.222Z,58.80
2018-02-21T17:21:10.857Z,57.80
2018-02-21T17:23:38.508Z,58.10
2018-02-21T17:26:06.900Z,58.10
2018-02-21T17:28:34.520Z,58.10
2018-02-21T17:31:02.144Z,59.40
2018-02-21T17:33:29.773Z,60.00
2018-02-21T17:35:57.396Z,59.60
2018-02-21T17:38:25.167Z,60.20
2018-02-21T17:40:52.805Z,59.90
2018-02-21T17:43:20.428Z,59.90
2018-02-21T17:45:48.074Z,61.00
2018-02-21T17:48:15.693Z,61.60
2018-02-21T17:50:43.344Z,60.90
2018-02-21T17:53:11.733Z,60.50
2018-02-21T17:55:40.124Z,60.30
2018-02-21T17:58:08.512Z,59.60
2018-02-21T18:00:36.138Z,59.60
2018-02-21T18:03:03.770Z,58.90
2018-02-21T18:05:31.420Z,58.90
2018-02-21T18:07:59.040Z,59.20
2018-02-21T18:10:26.664Z,58.60
2018-02-21T18:12:54.302Z,58.40
2018-02-21T18:15:22.689Z,58.10
2018-02-21T18:17:50.343Z,58.00
2018-02-21T18:20:17.957Z,59.00
2018-02-21T18:22:46.358Z,58.60
2018-02-21T18:25:13.983Z,58.60
2018-02-21T18:27:41.613Z,58.00
2018-02-21T18:30:10.023Z,57.50
2018-02-21T18:32:37.656Z,57.50
2018-02-21T18:35:05.444Z,58.50
2018-02-21T18:37:33.102Z,58.70
2018-02-21T18:40:00.732Z,58.00
2018-02-21T18:42:29.468Z,57.90
2018-02-21T18:44:57.868Z,58.20
2018-02-21T18:47:25.508Z,58.20
2018-02-21T18:49:53.137Z,58.40
2018-02-21T18:52:20.783Z,58.50
2018-02-21T18:54:48.421Z,58.20
2018-02-21T18:57:16.046Z,58.70
2018-02-21T18:59:43.673Z,58.70
2018-02-21T19:02:11.307Z,58.50
2018-02-21T19:04:39.716Z,58.50
2018-02-21T19:07:13.253Z,58.50
2018-02-21T19:09:40.903Z,58.80
2018-02-21T19:12:08.544Z,59.20
2018-02-21T19:14:36.179Z,59.10
2018-02-21T19:17:03.800Z,59.30
2018-02-21T19:19:31.457Z,59.60
2018-02-21T19:21:59.125Z,59.60
2018-02-21T19:24:26.766Z,59.30
2018-02-21T19:26:55.169Z,60.20
2018-02-21T19:29:22.829Z,60.00
2018-02-21T19:31:50.477Z,59.50
2018-02-21T19:34:18.898Z,60.20
2018-02-21T19:36:46.542Z,60.20
2018-02-21T19:39:14.957Z,61.70
2018-02-21T19:41:42.588Z,61.50
2018-02-21T19:44:10.216Z,60.90
2018-02-21T19:46:37.893Z,60.70
2018-02-21T19:49:06.322Z,62.00
2018-02-21T19:51:33.957Z,61.30
2018-02-21T19:54:01.612Z,60.60
2018-02-21T19:56:29.267Z,61.00
2018-02-21T19:58:56.930Z,61.80
2018-02-21T20:01:24.569Z,62.60
2018-02-21T20:03:52.220Z,62.60
2018-02-21T20:06:19.861Z,62.70
2018-02-21T20:08:48.280Z,64.30
2018-02-21T20:11:15.914Z,63.50
2018-02-21T20:13:43.572Z,63.40
2018-02-21T20:16:11.989Z,63.20
2018-02-21T20:18:39.612Z,63.20
2018-02-21T20:21:07.270Z,63.00
2018-02-21T20:23:34.924Z,63.20
2018-02-21T20:26:02.588Z,63.10
2018-02-21T20:28:30.224Z,63.60
2018-02-21T20:30:57.878Z,63.80
2018-02-21T20:33:25.530Z,63.40
2018-02-21T20:35:53.177Z,64.00
2018-02-21T20:38:20.910Z,64.50
2018-02-21T20:40:48.763Z,65.00
2018-02-21T20:43:16.403Z,64.30
2018-02-21T20:45:44.830Z,64.50
2018-02-21T20:48:12.424Z,64.50
2018-02-21T20:50:40.064Z,65.10
2018-02-21T20:53:07.700Z,65.30
2018-02-21T20:55:35.628Z,64.60
2018-02-21T20:58:03.268Z,64.60
